sensor_id;sensor_type;location;lat;lon;timestamp;temperature;humidity
55026;DHT22;40925;45.666;18.994;2024-02-21T00:00:55;230.60;2252.80
55026;DHT22;40925;45.666;18.994;2024-02-21T00:03:20;230.60;2252.80
55026;DHT22;40925;45.666;18.994;2024-02-21T00:05:48;230.50;2252.80
55026;DHT22;40925;45.666;18.994;2024-02-21T00:08:13;230.50;2252.80
55026;DHT22;40925;45.666;18.994;2024-02-21T00:10:39;230.50;2252.80
55026;DHT22;40925;45.666;18.994;2024-02-21T00:13:05;230.40;2252.80
55026;DHT22;40925;45.666;18.994;2024-02-21T00:15:31;230.40;2252.80
55026;DHT22;40925;45.666;18.994;2024-02-21T00:17:56;205.70;2252.80
55026;DHT22;40925;45.666;18.994;2024-02-21T00:20:22;205.70;2252.80
55026;DHT22;40925;45.666;18.994;2024-02-21T00:22:48;205.70;2252.80
55026;DHT22;40925;45.666;18.994;2024-02-21T00:25:14;205.60;2252.80
55026;DHT22;40925;45.666;18.994;2024-02-21T00:27:39;205.60;2252.80
55026;DHT22;40925;45.666;18.994;2024-02-21T00:30:05;205.50;2252.80
55026;DHT22;40925;45.666;18.994;2024-02-21T00:32:31;205.50;2252.80
55026;DHT22;40925;45.666;18.994;2024-02-21T00:34:59;205.40;2252.80
55026;DHT22;40925;45.666;18.994;2024-02-21T00:37:25;205.40;2252.80
55026;DHT22;40925;45.666;18.994;2024-02-21T00:39:51;205.30;2252.80
55026;DHT22;40925;45.666;18.994;2024-02-21T00:42:16;205.30;2252.80
55026;DHT22;40925;45.666;18.994;2024-02-21T00:44:42;205.30;2252.80
55026;DHT22;40925;45.666;18.994;2024-02-21T00:47:09;205.20;2252.80
55026;DHT22;40925;45.666;18.994;2024-02-21T00:49:35;205.30;2252.80
55026;DHT22;40925;45.666;18.994;2024-02-21T00:52:01;205.20;2252.80
55026;DHT22;40925;45.666;18.994;2024-02-21T00:54:26;205.20;2252.80
55026;DHT22;40925;45.666;18.994;2024-02-21T00:56:52;205.10;2252.80
55026;DHT22;40925;45.666;18.994;2024-02-21T00:59:18;205.20;2252.80
55026;DHT22;40925;45.666;18.994;2024-02-21T01:01:44;205.10;2252.80
55026;DHT22;40925;45.666;18.994;2024-02-21T01:04:10;205.50;2252.80
55026;DHT22;40925;45.666;18.994;2024-02-21T01:06:35;205.10;2252.80
55026;DHT22;40925;45.666;18.994;2024-02-21T01:09:01;205.00;2252.80
55026;DHT22;40925;45.666;18.994;2024-02-21T01:11:27;205.00;2252.80
55026;DHT22;40925;45.666;18.994;2024-02-21T01:13:53;205.00;2252.80
55026;DHT22;40925;45.666;18.994;2024-02-21T01:16:20;205.00;2252.80
55026;DHT22;40925;45.666;18.994;2024-02-21T01:18:46;205.00;2252.80
55026;DHT22;40925;45.666;18.994;2024-02-21T01:21:12;205.00;2252.80
55026;DHT22;40925;45.666;18.994;2024-02-21T01:23:37;204.90;2252.80
55026;DHT22;40925;45.666;18.994;2024-02-21T01:26:04;204.90;2252.80
55026;DHT22;40925;45.666;18.994;2024-02-21T01:28:30;204.90;2252.80
55026;DHT22;40925;45.666;18.994;2024-02-21T01:30:56;204.80;2252.80
55026;DHT22;40925;45.666;18.994;2024-02-21T01:33:22;179.90;2252.80
55026;DHT22;40925;45.666;18.994;2024-02-21T01:35:48;204.80;2252.80
55026;DHT22;40925;45.666;18.994;2024-02-21T01:38:15;204.80;2252.80
55026;DHT22;40925;45.666;18.994;2024-02-21T01:40:40;204.80;2252.80
55026;DHT22;40925;45.666;18.994;2024-02-21T01:43:16;180.10;2252.80
55026;DHT22;40925;45.666;18.994;2024-02-21T01:45:45;180.10;2252.80
55026;DHT22;40925;45.666;18.994;2024-02-21T01:48:12;180.10;2252.80
55026;DHT22;40925;45.666;18.994;2024-02-21T01:50:38;204.80;2252.80
55026;DHT22;40925;45.666;18.994;2024-02-21T01:53:05;180.10;2252.80
55026;DHT22;40925;45.666;18.994;2024-02-21T01:55:32;180.00;2252.80
55026;DHT22;40925;45.666;18.994;2024-02-21T01:57:58;180.00;2252.80
55026;DHT22;40925;45.666;18.994;2024-02-21T02:00:24;180.00;2252.80
55026;DHT22;40925;45.666;18.994;2024-02-21T02:02:50;180.00;2252.80
55026;DHT22;40925;45.666;18.994;2024-02-21T02:05:16;180.00;2252.80
55026;DHT22;40925;45.666;18.994;2024-02-21T02:07:44;180.00;2252.80
55026;DHT22;40925;45.666;18.994;2024-02-21T02:10:09;180.00;2252.80
55026;DHT22;40925;45.666;18.994;2024-02-21T02:12:35;180.00;2252.80
55026;DHT22;40925;45.666;18.994;2024-02-21T02:15:03;180.00;2252.80
55026;DHT22;40925;45.666;18.994;2024-02-21T02:17:30;180.10;2252.80
55026;DHT22;40925;45.666;18.994;2024-02-21T02:19:56;179.90;2252.80
55026;DHT22;40925;45.666;18.994;2024-02-21T02:22:24;179.90;2252.80
55026;DHT22;40925;45.666;18.994;2024-02-21T02:24:51;179.90;2252.80
55026;DHT22;40925;45.666;18.994;2024-02-21T02:27:17;179.90;2252.80
55026;DHT22;40925;45.666;18.994;2024-02-21T02:29:43;179.90;2252.80
55026;DHT22;40925;45.666;18.994;2024-02-21T02:32:08;179.90;2252.80
55026;DHT22;40925;45.666;18.994;2024-02-21T02:34:34;179.80;2252.80
55026;DHT22;40925;45.666;18.994;2024-02-21T02:37:00;179.80;2252.80
55026;DHT22;40925;45.666;18.994;2024-02-21T02:39:25;179.80;2252.80
55026;DHT22;40925;45.666;18.994;2024-02-21T02:41:51;179.80;2252.80
55026;DHT22;40925;45.666;18.994;2024-02-21T02:44:17;179.70;2252.80
55026;DHT22;40925;45.666;18.994;2024-02-21T02:46:42;179.80;2252.80
55026;DHT22;40925;45.666;18.994;2024-02-21T02:49:08;180.00;2252.80
55026;DHT22;40925;45.666;18.994;2024-02-21T02:51:34;179.90;2252.80
55026;DHT22;40925;45.666;18.994;2024-02-21T02:54:00;179.70;2252.80
55026;DHT22;40925;45.666;18.994;2024-02-21T02:56:26;179.80;2252.80
55026;DHT22;40925;45.666;18.994;2024-02-21T02:58:51;179.80;2252.80
55026;DHT22;40925;45.666;18.994;2024-02-21T03:01:17;179.80;2252.80
55026;DHT22;40925;45.666;18.994;2024-02-21T03:03:43;179.80;2252.80
55026;DHT22;40925;45.666;18.994;2024-02-21T03:06:10;179.80;2252.80
55026;DHT22;40925;45.666;18.994;2024-02-21T03:08:36;179.80;2252.80
55026;DHT22;40925;45.666;18.994;2024-02-21T03:11:02;179.90;2252.80
55026;DHT22;40925;45.666;18.994;2024-02-21T03:13:28;179.90;2252.80
55026;DHT22;40925;45.666;18.994;2024-02-21T03:15:54;179.90;2252.80
55026;DHT22;40925;45.666;18.994;2024-02-21T03:18:19;179.90;2252.80
55026;DHT22;40925;45.666;18.994;2024-02-21T03:20:45;179.80;2252.80
55026;DHT22;40925;45.666;18.994;2024-02-21T03:23:11;179.80;2252.80
55026;DHT22;40925;45.666;18.994;2024-02-21T03:25:37;179.90;2252.80
55026;DHT22;40925;45.666;18.994;2024-02-21T03:28:02;179.90;2252.80
55026;DHT22;40925;45.666;18.994;2024-02-21T03:30:29;179.90;2252.80
55026;DHT22;40925;45.666;18.994;2024-02-21T03:32:54;179.90;2252.80
55026;DHT22;40925;45.666;18.994;2024-02-21T03:35:20;179.90;2252.80
55026;DHT22;40925;45.666;18.994;2024-02-21T03:37:46;179.90;2252.80
55026;DHT22;40925;45.666;18.994;2024-02-21T03:40:11;179.90;2252.80
55026;DHT22;40925;45.666;18.994;2024-02-21T03:42:38;179.90;2252.80
55026;DHT22;40925;45.666;18.994;2024-02-21T03:45:04;180.10;2252.80
55026;DHT22;40925;45.666;18.994;2024-02-21T03:47:30;180.00;2252.80
55026;DHT22;40925;45.666;18.994;2024-02-21T03:49:55;180.00;2252.80
55026;DHT22;40925;45.666;18.994;2024-02-21T03:52:22;180.00;2252.80
55026;DHT22;40925;45.666;18.994;2024-02-21T03:54:47;180.00;2252.80
55026;DHT22;40925;45.666;18.994;2024-02-21T03:57:13;180.00;2252.80
55026;DHT22;40925;45.666;18.994;2024-02-21T03:59:39;180.00;2252.80
55026;DHT22;40925;45.666;18.994;2024-02-21T04:02:05;180.10;2252.80
55026;DHT22;40925;45.666;18.994;2024-02-21T04:04:35;180.10;2252.80
55026;DHT22;40925;45.666;18.994;2024-02-21T04:07:03;180.10;2252.80
55026;DHT22;40925;45.666;18.994;2024-02-21T04:09:32;204.90;2252.80
55026;DHT22;40925;45.666;18.994;2024-02-21T04:11:59;204.80;2252.80
55026;DHT22;40925;45.666;18.994;2024-02-21T04:14:25;204.90;2252.80
55026;DHT22;40925;45.666;18.994;2024-02-21T04:16:51;204.90;2252.80
55026;DHT22;40925;45.666;18.994;2024-02-21T04:19:16;204.80;2252.80
55026;DHT22;40925;45.666;18.994;2024-02-21T04:21:42;204.90;2252.80
55026;DHT22;40925;45.666;18.994;2024-02-21T04:24:08;204.90;2252.80
55026;DHT22;40925;45.666;18.994;2024-02-21T04:26:34;205.00;2252.80
55026;DHT22;40925;45.666;18.994;2024-02-21T04:28:59;204.90;2252.80
55026;DHT22;40925;45.666;18.994;2024-02-21T04:31:25;205.00;2252.80
55026;DHT22;40925;45.666;18.994;2024-02-21T04:33:51;204.90;2252.80
55026;DHT22;40925;45.666;18.994;2024-02-21T04:36:17;204.90;2252.80
55026;DHT22;40925;45.666;18.994;2024-02-21T04:38:43;204.80;2252.80
55026;DHT22;40925;45.666;18.994;2024-02-21T04:41:08;204.80;2252.80
55026;DHT22;40925;45.666;18.994;2024-02-21T04:43:34;204.80;2252.80
55026;DHT22;40925;45.666;18.994;2024-02-21T04:46:00;180.10;2252.80
55026;DHT22;40925;45.666;18.994;2024-02-21T04:48:26;180.10;2252.80
55026;DHT22;40925;45.666;18.994;2024-02-21T04:50:51;180.10;2252.80
55026;DHT22;40925;45.666;18.994;2024-02-21T04:53:17;180.10;2252.80
55026;DHT22;40925;45.666;18.994;2024-02-21T04:55:44;180.00;2252.80
55026;DHT22;40925;45.666;18.994;2024-02-21T04:58:09;180.00;2252.80
55026;DHT22;40925;45.666;18.994;2024-02-21T05:00:35;180.00;2252.80
55026;DHT22;40925;45.666;18.994;2024-02-21T05:03:01;180.10;2252.80
55026;DHT22;40925;45.666;18.994;2024-02-21T05:05:27;180.10;2252.80
55026;DHT22;40925;45.666;18.994;2024-02-21T05:07:52;180.00;2252.80
55026;DHT22;40925;45.666;18.994;2024-02-21T05:10:18;180.10;2252.80
55026;DHT22;40925;45.666;18.994;2024-02-21T05:12:45;180.10;2252.80
55026;DHT22;40925;45.666;18.994;2024-02-21T05:15:10;180.10;2252.80
55026;DHT22;40925;45.666;18.994;2024-02-21T05:17:36;180.10;2252.80
55026;DHT22;40925;45.666;18.994;2024-02-21T05:20:02;204.80;2252.80
55026;DHT22;40925;45.666;18.994;2024-02-21T05:22:29;204.80;2252.80
55026;DHT22;40925;45.666;18.994;2024-02-21T05:24:54;204.80;2252.80
55026;DHT22;40925;45.666;18.994;2024-02-21T05:27:20;204.80;2252.80
55026;DHT22;40925;45.666;18.994;2024-02-21T05:29:46;204.90;2252.80
55026;DHT22;40925;45.666;18.994;2024-02-21T05:32:13;204.90;2252.80
55026;DHT22;40925;45.666;18.994;2024-02-21T05:34:42;204.90;2252.80
55026;DHT22;40925;45.666;18.994;2024-02-21T05:37:08;204.90;2252.80
55026;DHT22;40925;45.666;18.994;2024-02-21T05:39:34;205.00;2252.80
55026;DHT22;40925;45.666;18.994;2024-02-21T05:41:59;204.90;2252.80
55026;DHT22;40925;45.666;18.994;2024-02-21T05:44:25;204.90;2252.80
55026;DHT22;40925;45.666;18.994;2024-02-21T05:46:52;205.10;2252.80
55026;DHT22;40925;45.666;18.994;2024-02-21T05:49:18;205.00;2252.80
55026;DHT22;40925;45.666;18.994;2024-02-21T05:51:43;205.10;2252.80
55026;DHT22;40925;45.666;18.994;2024-02-21T05:54:09;205.00;2252.80
55026;DHT22;40925;45.666;18.994;2024-02-21T05:56:35;205.10;2252.80
55026;DHT22;40925;45.666;18.994;2024-02-21T05:59:00;205.00;2252.80
55026;DHT22;40925;45.666;18.994;2024-02-21T06:01:26;205.00;2252.80
55026;DHT22;40925;45.666;18.994;2024-02-21T06:03:52;204.90;2252.80
55026;DHT22;40925;45.666;18.994;2024-02-21T06:43:04;205.20;2252.80
55026;DHT22;40925;45.666;18.994;2024-02-21T06:45:30;205.10;2252.80
55026;DHT22;40925;45.666;18.994;2024-02-21T06:47:56;205.20;2252.80
55026;DHT22;40925;45.666;18.994;2024-02-21T06:50:25;205.30;2252.80
55026;DHT22;40925;45.666;18.994;2024-02-21T06:52:51;205.70;2252.80
55026;DHT22;40925;45.666;18.994;2024-02-21T06:55:19;231.00;2252.80
55026;DHT22;40925;45.666;18.994;2024-02-21T06:57:45;256.10;2252.80
55026;DHT22;40925;45.666;18.994;2024-02-21T07:00:11;256.90;2252.80
55026;DHT22;40925;45.666;18.994;2024-02-21T07:02:37;282.40;2278.40
55026;DHT22;40925;45.666;18.994;2024-02-21T07:05:03;307.60;2304.00
55026;DHT22;40925;45.666;18.994;2024-02-21T07:07:29;282.30;2278.40
55026;DHT22;40925;45.666;18.994;2024-02-21T07:09:57;281.70;2278.40
55026;DHT22;40925;45.666;18.994;2024-02-21T07:12:23;256.70;2252.80
55026;DHT22;40925;45.666;18.994;2024-02-21T07:14:49;256.50;2252.80
55026;DHT22;40925;45.666;18.994;2024-02-21T07:17:15;256.40;2252.80
55026;DHT22;40925;45.666;18.994;2024-02-21T07:19:40;256.10;2252.80
55026;DHT22;40925;45.666;18.994;2024-02-21T07:22:06;256.00;2252.80
55026;DHT22;40925;45.666;18.994;2024-02-21T07:24:32;256.50;2252.80
55026;DHT22;40925;45.666;18.994;2024-02-21T07:26:58;256.50;2252.80
55026;DHT22;40925;45.666;18.994;2024-02-21T07:29:30;256.20;2252.80
55026;DHT22;40925;45.666;18.994;2024-02-21T07:31:55;231.30;2252.80
55026;DHT22;40925;45.666;18.994;2024-02-21T07:34:21;231.10;2252.80
55026;DHT22;40925;45.666;18.994;2024-02-21T07:36:47;231.00;2252.80
55026;DHT22;40925;45.666;18.994;2024-02-21T07:39:12;231.00;2252.80
55026;DHT22;40925;45.666;18.994;2024-02-21T07:41:38;231.00;2252.80
55026;DHT22;40925;45.666;18.994;2024-02-21T07:44:04;231.00;2252.80
55026;DHT22;40925;45.666;18.994;2024-02-21T07:46:30;230.90;2252.80
55026;DHT22;40925;45.666;18.994;2024-02-21T07:48:56;231.00;2252.80
55026;DHT22;40925;45.666;18.994;2024-02-21T07:51:22;230.80;2252.80
55026;DHT22;40925;45.666;18.994;2024-02-21T07:53:47;230.80;2252.80
55026;DHT22;40925;45.666;18.994;2024-02-21T07:56:15;230.80;2252.80
55026;DHT22;40925;45.666;18.994;2024-02-21T07:58:41;230.80;2252.80
55026;DHT22;40925;45.666;18.994;2024-02-21T08:01:07;230.80;2252.80
55026;DHT22;40925;45.666;18.994;2024-02-21T08:03:33;230.80;2252.80
55026;DHT22;40925;45.666;18.994;2024-02-21T08:06:00;230.90;2252.80
55026;DHT22;40925;45.666;18.994;2024-02-21T08:08:25;230.90;2252.80
55026;DHT22;40925;45.666;18.994;2024-02-21T08:10:52;230.90;2252.80
55026;DHT22;40925;45.666;18.994;2024-02-21T08:13:17;230.90;2252.80
55026;DHT22;40925;45.666;18.994;2024-02-21T08:15:43;230.90;2252.80
55026;DHT22;40925;45.666;18.994;2024-02-21T08:18:09;231.00;2252.80
55026;DHT22;40925;45.666;18.994;2024-02-21T08:20:35;231.20;2252.80
55026;DHT22;40925;45.666;18.994;2024-02-21T08:23:01;256.00;2252.80
55026;DHT22;40925;45.666;18.994;2024-02-21T08:25:27;256.00;2252.80
55026;DHT22;40925;45.666;18.994;2024-02-21T08:27:58;256.40;2252.80
55026;DHT22;40925;45.666;18.994;2024-02-21T08:30:24;281.70;2278.40
55026;DHT22;40925;45.666;18.994;2024-02-21T08:32:50;282.10;2278.40
55026;DHT22;40925;45.666;18.994;2024-02-21T08:35:16;282.10;2278.40
55026;DHT22;40925;45.666;18.994;2024-02-21T08:37:44;282.10;2278.40
55026;DHT22;40925;45.666;18.994;2024-02-21T08:40:15;282.50;2278.40
55026;DHT22;40925;45.666;18.994;2024-02-21T08:42:47;282.40;2278.40
55026;DHT22;40925;45.666;18.994;2024-02-21T08:45:12;282.50;2278.40
55026;DHT22;40925;45.666;18.994;2024-02-21T08:47:42;307.30;2304.00
55026;DHT22;40925;45.666;18.994;2024-02-21T08:50:08;307.30;2304.00
55026;DHT22;40925;45.666;18.994;2024-02-21T08:52:35;307.40;2304.00
55026;DHT22;40925;45.666;18.994;2024-02-21T08:55:01;307.60;2304.00
55026;DHT22;40925;45.666;18.994;2024-02-21T08:57:27;307.40;2304.00
55026;DHT22;40925;45.666;18.994;2024-02-21T08:59:53;307.30;2304.00
55026;DHT22;40925;45.666;18.994;2024-02-21T09:02:21;307.30;2304.00
55026;DHT22;40925;45.666;18.994;2024-02-21T09:04:47;307.30;2304.00
55026;DHT22;40925;45.666;18.994;2024-02-21T09:07:13;307.50;2304.00
55026;DHT22;40925;45.666;18.994;2024-02-21T09:09:39;307.70;2304.00
55026;DHT22;40925;45.666;18.994;2024-02-21T09:12:08;333.00;2329.60
55026;DHT22;40925;45.666;18.994;2024-02-21T09:14:36;358.40;2278.40
55026;DHT22;40925;45.666;18.994;2024-02-21T09:17:04;358.80;2150.40
55026;DHT22;40925;45.666;18.994;2024-02-21T09:19:33;384.10;2073.60
55026;DHT22;40925;45.666;18.994;2024-02-21T09:22:01;359.30;2022.40
55026;DHT22;40925;45.666;18.994;2024-02-21T09:24:27;359.00;2048.00
55026;DHT22;40925;45.666;18.994;2024-02-21T09:26:53;358.80;2022.40
55026;DHT22;40925;45.666;18.994;2024-02-21T09:29:19;358.60;2048.00
55026;DHT22;40925;45.666;18.994;2024-02-21T09:31:44;333.60;2073.60
55026;DHT22;40925;45.666;18.994;2024-02-21T09:34:11;333.60;2073.60
55026;DHT22;40925;45.666;18.994;2024-02-21T09:36:36;333.50;2073.60
55026;DHT22;40925;45.666;18.994;2024-02-21T09:39:02;333.50;2073.60
55026;DHT22;40925;45.666;18.994;2024-02-21T09:41:28;333.60;2073.60
55026;DHT22;40925;45.666;18.994;2024-02-21T09:43:54;333.60;2073.60
55026;DHT22;40925;45.666;18.994;2024-02-21T09:46:24;358.60;2048.00
55026;DHT22;40925;45.666;18.994;2024-02-21T09:51:41;359.30;1996.80
55026;DHT22;40925;45.666;18.994;2024-02-21T09:54:09;384.70;1920.00
55026;DHT22;40925;45.666;18.994;2024-02-21T09:56:34;409.90;1868.80
55026;DHT22;40925;45.666;18.994;2024-02-21T09:59:01;410.00;1843.20
55026;DHT22;40925;45.666;18.994;2024-02-21T10:01:31;410.10;1817.60
55026;DHT22;40925;45.666;18.994;2024-02-21T10:03:57;384.90;1817.60
55026;DHT22;40925;45.666;18.994;2024-02-21T10:06:23;384.30;1843.20
55026;DHT22;40925;45.666;18.994;2024-02-21T10:08:53;359.30;1843.20
55026;DHT22;40925;45.666;18.994;2024-02-21T10:11:23;359.30;1868.80
55026;DHT22;40925;45.666;18.994;2024-02-21T10:13:50;359.30;1868.80
55026;DHT22;40925;45.666;18.994;2024-02-21T10:16:15;384.00;1868.80
55026;DHT22;40925;45.666;18.994;2024-02-21T10:18:41;384.30;1868.80
55026;DHT22;40925;45.666;18.994;2024-02-21T10:21:08;384.60;1817.60
55026;DHT22;40925;45.666;18.994;2024-02-21T10:23:47;409.90;1792.00
55026;DHT22;40925;45.666;18.994;2024-02-21T10:26:14;409.90;1792.00
55026;DHT22;40925;45.666;18.994;2024-02-21T10:28:41;410.50;1766.40
55026;DHT22;40925;45.666;18.994;2024-02-21T10:31:27;410.40;1740.80
55026;DHT22;40925;45.666;18.994;2024-02-21T10:34:02;410.40;1766.40
55026;DHT22;40925;45.666;18.994;2024-02-21T10:36:28;435.40;1766.40
55026;DHT22;40925;45.666;18.994;2024-02-21T10:38:54;435.50;1740.80
55026;DHT22;40925;45.666;18.994;2024-02-21T10:41:21;435.70;1715.20
55026;DHT22;40925;45.666;18.994;2024-02-21T10:43:52;435.80;1689.60
55026;DHT22;40925;45.666;18.994;2024-02-21T10:46:20;435.70;1715.20
55026;DHT22;40925;45.666;18.994;2024-02-21T10:48:47;435.30;1689.60
55026;DHT22;40925;45.666;18.994;2024-02-21T10:51:20;435.20;1715.20
55026;DHT22;40925;45.666;18.994;2024-02-21T10:56:28;410.20;1740.80
55026;DHT22;40925;45.666;18.994;2024-02-21T10:58:57;384.90;1792.00
55026;DHT22;40925;45.666;18.994;2024-02-21T11:01:23;384.90;1766.40
55026;DHT22;40925;45.666;18.994;2024-02-21T11:03:53;435.20;1715.20
55026;DHT22;40925;45.666;18.994;2024-02-21T11:06:20;409.70;1766.40
55026;DHT22;40925;45.666;18.994;2024-02-21T11:08:47;409.90;1766.40
55026;DHT22;40925;45.666;18.994;2024-02-21T11:11:15;435.20;1740.80
55026;DHT22;40925;45.666;18.994;2024-02-21T11:13:46;460.80;1715.20
55026;DHT22;40925;45.666;18.994;2024-02-21T11:16:23;461.00;1638.40
55026;DHT22;40925;45.666;18.994;2024-02-21T11:18:49;461.30;1587.20
55026;DHT22;40925;45.666;18.994;2024-02-21T11:21:15;461.10;1612.80
55026;DHT22;40925;45.666;18.994;2024-02-21T11:23:41;436.10;1587.20
55026;DHT22;40925;45.666;18.994;2024-02-21T11:26:08;435.70;1612.80
55026;DHT22;40925;45.666;18.994;2024-02-21T11:28:35;435.70;1638.40
55026;DHT22;40925;45.666;18.994;2024-02-21T11:31:12;436.00;1612.80
55026;DHT22;40925;45.666;18.994;2024-02-21T11:33:41;461.00;1612.80
55026;DHT22;40925;45.666;18.994;2024-02-21T11:36:22;461.40;1561.60
55026;DHT22;40925;45.666;18.994;2024-02-21T11:38:48;461.60;1561.60
55026;DHT22;40925;45.666;18.994;2024-02-21T11:41:14;461.70;1561.60
55026;DHT22;40925;45.666;18.994;2024-02-21T11:43:40;486.40;1536.00
55026;DHT22;40925;45.666;18.994;2024-02-21T11:46:07;461.00;1561.60
55026;DHT22;40925;45.666;18.994;2024-02-21T11:48:32;461.10;1587.20
55026;DHT22;40925;45.666;18.994;2024-02-21T11:50:58;461.30;1536.00
55026;DHT22;40925;45.666;18.994;2024-02-21T11:53:29;461.30;1561.60
55026;DHT22;40925;45.666;18.994;2024-02-21T11:55:56;461.40;1536.00
55026;DHT22;40925;45.666;18.994;2024-02-21T11:58:22;461.60;1510.40
55026;DHT22;40925;45.666;18.994;2024-02-21T12:00:48;461.40;1510.40
55026;DHT22;40925;45.666;18.994;2024-02-21T12:03:14;461.30;1510.40
55026;DHT22;40925;45.666;18.994;2024-02-21T12:05:41;461.20;1536.00
55026;DHT22;40925;45.666;18.994;2024-02-21T12:08:07;461.00;1536.00
55026;DHT22;40925;45.666;18.994;2024-02-21T12:10:36;461.10;1536.00
55026;DHT22;40925;45.666;18.994;2024-02-21T12:13:08;461.10;1536.00
55026;DHT22;40925;45.666;18.994;2024-02-21T12:15:34;461.30;1536.00
55026;DHT22;40925;45.666;18.994;2024-02-21T12:18:03;461.50;1536.00
55026;DHT22;40925;45.666;18.994;2024-02-21T12:20:30;461.60;1510.40
55026;DHT22;40925;45.666;18.994;2024-02-21T12:23:00;461.50;1510.40
55026;DHT22;40925;45.666;18.994;2024-02-21T12:25:26;486.40;1459.20
55026;DHT22;40925;45.666;18.994;2024-02-21T12:27:52;461.70;1484.80
55026;DHT22;40925;45.666;18.994;2024-02-21T12:30:18;461.00;1484.80
55026;DHT22;40925;45.666;18.994;2024-02-21T12:32:45;435.80;1561.60
55026;DHT22;40925;45.666;18.994;2024-02-21T12:35:11;410.50;1561.60
55026;DHT22;40925;45.666;18.994;2024-02-21T12:37:37;410.20;1587.20
55026;DHT22;40925;45.666;18.994;2024-02-21T12:40:05;410.50;1587.20
55026;DHT22;40925;45.666;18.994;2024-02-21T12:42:35;410.30;1612.80
55026;DHT22;40925;45.666;18.994;2024-02-21T12:45:02;384.90;1612.80
55026;DHT22;40925;45.666;18.994;2024-02-21T12:47:28;409.60;1612.80
55026;DHT22;40925;45.666;18.994;2024-02-21T12:49:54;410.40;1612.80
55026;DHT22;40925;45.666;18.994;2024-02-21T12:52:20;410.50;1587.20
55026;DHT22;40925;45.666;18.994;2024-02-21T12:54:45;410.00;1587.20
55026;DHT22;40925;45.666;18.994;2024-02-21T12:57:11;384.60;1612.80
55026;DHT22;40925;45.666;18.994;2024-02-21T12:59:37;384.20;1664.00
55026;DHT22;40925;45.666;18.994;2024-02-21T13:02:03;384.30;1664.00
55026;DHT22;40925;45.666;18.994;2024-02-21T13:04:29;359.30;1664.00
55026;DHT22;40925;45.666;18.994;2024-02-21T13:06:54;359.00;1689.60
55026;DHT22;40925;45.666;18.994;2024-02-21T13:09:21;359.00;1715.20
55026;DHT22;40925;45.666;18.994;2024-02-21T13:11:47;359.20;1689.60
55026;DHT22;40925;45.666;18.994;2024-02-21T13:14:13;384.30;1664.00
55026;DHT22;40925;45.666;18.994;2024-02-21T13:16:39;384.50;1664.00
55026;DHT22;40925;45.666;18.994;2024-02-21T13:19:06;384.00;1664.00
55026;DHT22;40925;45.666;18.994;2024-02-21T13:21:31;359.20;1664.00
55026;DHT22;40925;45.666;18.994;2024-02-21T13:23:57;358.90;1715.20
55026;DHT22;40925;45.666;18.994;2024-02-21T13:26:23;359.30;1689.60
55026;DHT22;40925;45.666;18.994;2024-02-21T13:28:49;384.80;1638.40
55026;DHT22;40925;45.666;18.994;2024-02-21T13:31:15;410.40;1817.60
55026;DHT22;40925;45.666;18.994;2024-02-21T13:33:44;435.50;1587.20
55026;DHT22;40925;45.666;18.994;2024-02-21T13:36:10;460.80;1587.20
55026;DHT22;40925;45.666;18.994;2024-02-21T13:38:36;460.80;1484.80
55026;DHT22;40925;45.666;18.994;2024-02-21T13:41:07;436.10;1484.80
55026;DHT22;40925;45.666;18.994;2024-02-21T13:43:33;435.40;1510.40
55026;DHT22;40925;45.666;18.994;2024-02-21T13:46:02;435.40;1510.40
55026;DHT22;40925;45.666;18.994;2024-02-21T13:48:30;435.40;1510.40
55026;DHT22;40925;45.666;18.994;2024-02-21T13:50:56;435.80;1536.00
55026;DHT22;40925;45.666;18.994;2024-02-21T13:53:22;435.80;1484.80
55026;DHT22;40925;45.666;18.994;2024-02-21T13:55:51;436.00;1484.80
55026;DHT22;40925;45.666;18.994;2024-02-21T13:58:17;435.90;1484.80
55026;DHT22;40925;45.666;18.994;2024-02-21T14:03:09;435.90;1484.80
55026;DHT22;40925;45.666;18.994;2024-02-21T14:05:35;435.40;1510.40
55026;DHT22;40925;45.666;18.994;2024-02-21T14:08:01;435.40;1510.40
55026;DHT22;40925;45.666;18.994;2024-02-21T14:10:26;435.20;1510.40
55026;DHT22;40925;45.666;18.994;2024-02-21T14:12:53;435.40;1510.40
55026;DHT22;40925;45.666;18.994;2024-02-21T14:15:18;435.30;1510.40
55026;DHT22;40925;45.666;18.994;2024-02-21T14:17:44;435.40;1510.40
55026;DHT22;40925;45.666;18.994;2024-02-21T14:20:10;435.20;1536.00
55026;DHT22;40925;45.666;18.994;2024-02-21T14:22:36;435.70;1536.00
55026;DHT22;40925;45.666;18.994;2024-02-21T14:25:03;436.00;1510.40
55026;DHT22;40925;45.666;18.994;2024-02-21T14:27:32;436.00;1484.80
55026;DHT22;40925;45.666;18.994;2024-02-21T14:29:58;435.90;1459.20
55026;DHT22;40925;45.666;18.994;2024-02-21T14:32:24;435.90;1459.20
55026;DHT22;40925;45.666;18.994;2024-02-21T14:34:50;435.90;1484.80
55026;DHT22;40925;45.666;18.994;2024-02-21T14:37:16;436.10;1484.80
55026;DHT22;40925;45.666;18.994;2024-02-21T14:39:41;436.00;1459.20
55026;DHT22;40925;45.666;18.994;2024-02-21T14:42:07;436.00;1484.80
55026;DHT22;40925;45.666;18.994;2024-02-21T14:44:36;436.00;1459.20
55026;DHT22;40925;45.666;18.994;2024-02-21T14:47:02;436.10;1459.20
55026;DHT22;40925;45.666;18.994;2024-02-21T14:49:34;460.80;1484.80
55026;DHT22;40925;45.666;18.994;2024-02-21T14:52:01;436.10;1459.20
55026;DHT22;40925;45.666;18.994;2024-02-21T14:54:27;435.40;1484.80
55026;DHT22;40925;45.666;18.994;2024-02-21T14:56:52;435.20;1484.80
55026;DHT22;40925;45.666;18.994;2024-02-21T14:59:20;410.40;1484.80
55026;DHT22;40925;45.666;18.994;2024-02-21T15:09:04;435.80;1792.00
55026;DHT22;40925;45.666;18.994;2024-02-21T15:11:32;435.60;1459.20
55026;DHT22;40925;45.666;18.994;2024-02-21T15:13:58;435.50;1433.60
55026;DHT22;40925;45.666;18.994;2024-02-21T15:16:24;435.20;1459.20
55026;DHT22;40925;45.666;18.994;2024-02-21T15:18:50;435.20;1459.20
55026;DHT22;40925;45.666;18.994;2024-02-21T15:21:17;410.50;1484.80
55026;DHT22;40925;45.666;18.994;2024-02-21T15:23:44;435.20;1459.20